createdAt,value
2019-03-30T00:00:42.218Z,69.50
2019-03-30T00:03:10.734Z,69.10
2019-03-30T00:05:39.374Z,69.50
2019-03-30T00:08:07.957Z,69.70
2019-03-30T00:10:36.784Z,69.30
2019-03-30T00:13:05.777Z,69.70
2019-03-30T00:15:34.348Z,70.50
2019-03-30T00:18:02.987Z,70.80
2019-03-30T00:20:31.652Z,71.00
2019-03-30T00:23:00.333Z,70.80
2019-03-30T00:25:28.992Z,70.60
2019-03-30T00:27:57.547Z,71.20
2019-03-30T00:30:26.168Z,71.40
2019-03-30T00:32:54.790Z,71.70
2019-03-30T00:35:23.446Z,72.30
2019-03-30T00:37:52.115Z,72.30
2019-03-30T00:40:20.749Z,72.20
2019-03-30T00:42:50.156Z,72.50
2019-03-30T00:45:19.247Z,72.10
2019-03-30T00:47:47.880Z,72.50
2019-03-30T00:50:16.525Z,72.90
2019-03-30T00:52:45.100Z,72.20
2019-03-30T00:55:13.665Z,72.70
2019-03-30T00:57:42.232Z,72.70
2019-03-30T01:00:11.242Z,72.70
2019-03-30T01:02:39.805Z,73.00
2019-03-30T01:05:08.528Z,73.20
2019-03-30T01:07:37.093Z,73.70
2019-03-30T01:10:06.943Z,74.20
2019-03-30T01:12:35.710Z,73.80
2019-03-30T01:15:06.572Z,73.60
2019-03-30T01:17:35.204Z,74.40
2019-03-30T01:20:05.872Z,74.20
2019-03-30T01:22:34.529Z,73.80
2019-03-30T01:25:03.542Z,74.10
2019-03-30T01:27:32.193Z,74.10
2019-03-30T01:30:00.694Z,73.30
2019-03-30T01:32:29.274Z,73.70
2019-03-30T01:34:57.794Z,73.70
2019-03-30T01:37:26.369Z,74.30
2019-03-30T01:39:55.018Z,73.80
2019-03-30T01:42:23.641Z,74.40
2019-03-30T01:44:52.209Z,74.30
2019-03-30T01:47:20.711Z,75.10
2019-03-30T01:49:49.548Z,75.70
2019-03-30T01:52:18.198Z,75.40
2019-03-30T01:54:47.100Z,75.60
2019-03-30T01:57:15.980Z,75.50
2019-03-30T01:59:44.626Z,75.80
2019-03-30T02:02:13.201Z,76.10
2019-03-30T02:04:41.787Z,76.70
2019-03-30T02:07:10.354Z,77.20
2019-03-30T02:09:39.054Z,77.00
2019-03-30T02:12:07.632Z,77.30
2019-03-30T02:14:36.265Z,78.10
2019-03-30T02:17:05.135Z,77.30
2019-03-30T02:19:33.864Z,77.00
2019-03-30T02:22:02.366Z,77.40
2019-03-30T02:24:31.068Z,77.60
2019-03-30T02:26:59.643Z,77.70
2019-03-30T02:29:28.246Z,77.10
2019-03-30T02:31:56.998Z,77.40
2019-03-30T02:34:25.562Z,77.60
2019-03-30T02:36:54.424Z,78.20
2019-03-30T02:39:23.304Z,78.20
2019-03-30T02:41:52.024Z,78.00
2019-03-30T02:44:20.592Z,78.40
2019-03-30T02:46:49.149Z,78.60
2019-03-30T02:49:17.839Z,79.20
2019-03-30T02:51:46.478Z,79.20
2019-03-30T02:54:15.168Z,79.10
2019-03-30T02:56:43.808Z,78.80
2019-03-30T02:59:12.503Z,78.10
2019-03-30T03:01:41.268Z,78.40
2019-03-30T03:04:10.029Z,78.80
2019-03-30T03:06:38.684Z,78.60
2019-03-30T03:09:09.290Z,78.60
2019-03-30T03:11:38.184Z,78.70
2019-03-30T03:14:06.855Z,79.50
2019-03-30T03:16:35.464Z,79.30
2019-03-30T03:19:04.121Z,79.40
2019-03-30T03:21:32.697Z,78.80
2019-03-30T03:24:01.435Z,79.00
2019-03-30T03:26:30.109Z,79.30
2019-03-30T03:28:58.626Z,79.60
2019-03-30T03:31:27.576Z,79.60
2019-03-30T03:33:56.364Z,79.90
2019-03-30T03:36:25.044Z,79.90
2019-03-30T03:38:53.638Z,80.10
2019-03-30T03:41:22.441Z,80.20
2019-03-30T03:43:51.198Z,80.70
2019-03-30T03:46:20.025Z,80.80
2019-03-30T03:48:48.674Z,80.20
2019-03-30T03:51:25.998Z,80.00
2019-03-30T03:53:50.146Z,79.10
2019-03-30T03:56:21.952Z,79.10
2019-03-30T03:58:51.638Z,80.20
2019-03-30T04:01:22.421Z,80.30
2019-03-30T04:03:53.323Z,80.50
2019-03-30T04:06:24.695Z,80.30
2019-03-30T04:08:56.198Z,80.50
2019-03-30T04:11:26.568Z,81.30
2019-03-30T04:13:57.244Z,81.20
2019-03-30T04:16:25.943Z,81.10
2019-03-30T04:18:54.689Z,81.60
2019-03-30T04:21:23.426Z,81.20
2019-03-30T04:23:54.231Z,81.20
2019-03-30T04:26:22.407Z,80.90
2019-03-30T04:28:51.122Z,80.90
2019-03-30T04:31:19.751Z,80.90
2019-03-30T04:33:48.333Z,81.40
2019-03-30T04:36:17.079Z,81.10
2019-03-30T04:38:45.643Z,80.80
2019-03-30T04:41:14.178Z,81.20
2019-03-30T04:43:42.665Z,81.90
2019-03-30T04:46:11.359Z,81.80
2019-03-30T04:48:39.921Z,81.80
2019-03-30T04:51:08.531Z,82.60
2019-03-30T04:53:37.065Z,82.80
2019-03-30T04:56:05.739Z,83.20
2019-03-30T04:58:34.424Z,82.60
2019-03-30T05:01:03.007Z,82.20
2019-03-30T05:03:31.495Z,82.60
2019-03-30T05:06:00.145Z,82.40
2019-03-30T05:08:28.697Z,81.90
2019-03-30T05:10:57.279Z,81.70
2019-03-30T05:13:25.838Z,81.40
2019-03-30T05:15:54.470Z,82.30
2019-03-30T05:18:23.167Z,82.80
2019-03-30T05:20:51.720Z,83.20
2019-03-30T05:23:20.240Z,82.70
2019-03-30T05:25:48.862Z,82.70
2019-03-30T05:28:17.422Z,82.10
2019-03-30T05:30:46.012Z,83.10
2019-03-30T05:33:14.584Z,82.50
2019-03-30T05:35:43.101Z,82.90
2019-03-30T05:38:11.589Z,83.30
2019-03-30T05:40:40.220Z,83.90
2019-03-30T05:43:09.331Z,83.70
2019-03-30T05:45:37.959Z,84.40
2019-03-30T05:48:06.704Z,84.10
2019-03-30T05:50:35.278Z,84.10
2019-03-30T05:53:03.848Z,83.60
2019-03-30T05:55:32.609Z,84.30
2019-03-30T05:58:01.218Z,84.90
2019-03-30T06:00:29.776Z,84.90
2019-03-30T06:02:58.398Z,85.40
2019-03-30T06:05:26.967Z,85.40
2019-03-30T06:07:55.578Z,85.20
2019-03-30T06:10:24.067Z,84.70
2019-03-30T06:12:52.659Z,84.80
2019-03-30T06:15:21.215Z,84.50
2019-03-30T06:17:49.735Z,84.10
2019-03-30T06:20:18.481Z,84.20
2019-03-30T06:22:47.118Z,85.00
2019-03-30T06:25:15.729Z,84.80
2019-03-30T06:27:44.363Z,84.40
2019-03-30T06:30:18.744Z,83.90
2019-03-30T06:32:47.597Z,83.50
2019-03-30T06:35:16.303Z,83.60
2019-03-30T06:37:44.900Z,82.70
2019-03-30T06:40:13.996Z,82.40
2019-03-30T06:42:42.553Z,82.00
2019-03-30T06:45:11.265Z,81.70
2019-03-30T06:47:39.955Z,81.70
2019-03-30T06:50:09.146Z,81.90
2019-03-30T06:52:41.097Z,81.90
2019-03-30T06:55:09.024Z,82.00
2019-03-30T06:57:37.681Z,82.00
2019-03-30T07:00:07.876Z,81.90
2019-03-30T07:02:37.568Z,81.60
2019-03-30T07:05:08.307Z,81.40
2019-03-30T07:07:38.631Z,81.00
2019-03-30T07:10:07.783Z,80.70
2019-03-30T07:12:39.361Z,80.50
2019-03-30T07:15:08.820Z,79.20
2019-03-30T07:17:40.387Z,78.70
2019-03-30T07:20:09.710Z,78.10
2019-03-30T07:22:38.229Z,77.40
2019-03-30T07:25:06.928Z,76.40
2019-03-30T07:27:35.469Z,75.10
2019-03-30T07:30:07.961Z,75.10
2019-03-30T07:32:36.532Z,74.40
2019-03-30T07:35:06.683Z,74.40
2019-03-30T07:37:35.229Z,72.30
2019-03-30T07:40:06.099Z,71.10
2019-03-30T07:42:34.591Z,70.00
2019-03-30T07:45:04.425Z,70.30
2019-03-30T07:47:32.957Z,70.20
2019-03-30T07:50:01.518Z,70.80
2019-03-30T07:52:30.116Z,70.40
2019-03-30T07:54:58.705Z,70.00
2019-03-30T07:57:27.485Z,69.40
2019-03-30T07:59:56.918Z,69.50
2019-03-30T08:02:25.484Z,69.30
2019-03-30T08:04:54.073Z,68.60
2019-03-30T08:07:22.651Z,67.50
2019-03-30T08:09:51.153Z,67.40
2019-03-30T08:12:19.900Z,66.10
2019-03-30T08:14:48.463Z,65.60
2019-03-30T08:17:17.185Z,64.70
2019-03-30T08:19:45.832Z,63.80
2019-03-30T08:22:14.403Z,63.90
2019-03-30T08:24:43.024Z,64.00
2019-03-30T08:27:11.571Z,63.20
2019-03-30T08:29:40.244Z,63.80
2019-03-30T08:32:08.843Z,61.90
2019-03-30T08:34:37.342Z,62.60
2019-03-30T08:37:05.925Z,62.30
2019-03-30T08:39:34.492Z,62.50
2019-03-30T08:42:03.087Z,62.60
2019-03-30T08:44:31.797Z,62.60
2019-03-30T08:47:00.366Z,62.00
2019-03-30T08:49:28.934Z,61.80
2019-03-30T08:51:57.500Z,62.00
2019-03-30T08:54:27.060Z,62.30
2019-03-30T08:56:55.622Z,61.50
2019-03-30T08:59:24.226Z,61.50
2019-03-30T09:01:52.815Z,61.30
2019-03-30T09:04:21.387Z,60.50
2019-03-30T09:06:50.053Z,61.10
2019-03-30T09:09:18.629Z,61.00
2019-03-30T09:11:47.347Z,60.00
2019-03-30T09:14:15.997Z,60.00
2019-03-30T09:16:44.628Z,58.00
2019-03-30T09:19:13.278Z,56.90
2019-03-30T09:21:41.940Z,54.70
2019-03-30T09:24:10.612Z,51.30
2019-03-30T09:26:39.373Z,48.50
2019-03-30T09:29:07.960Z,46.10
2019-03-30T09:31:36.475Z,44.80
2019-03-30T09:34:05.113Z,42.80
2019-03-30T09:36:33.965Z,41.70
2019-03-30T09:39:02.956Z,41.00
2019-03-30T09:41:31.544Z,40.30
2019-03-30T09:44:00.142Z,39.00
2019-03-30T09:46:28.752Z,38.50
2019-03-30T09:48:57.240Z,38.30
2019-03-30T09:51:25.836Z,36.30
2019-03-30T09:53:54.446Z,36.30
2019-03-30T09:56:23.028Z,35.70
2019-03-30T09:58:51.642Z,34.70
2019-03-30T10:01:20.146Z,34.90
2019-03-30T10:03:48.803Z,34.20
2019-03-30T10:06:17.371Z,36.30
2019-03-30T10:08:46.006Z,35.00
2019-03-30T10:11:14.649Z,34.10
2019-03-30T10:13:43.303Z,33.90
2019-03-30T10:16:12.090Z,32.10
2019-03-30T10:18:40.727Z,32.10
2019-03-30T10:21:09.280Z,31.50
2019-03-30T10:23:37.974Z,31.70
2019-03-30T10:26:06.741Z,31.40
2019-03-30T10:28:35.263Z,31.20
2019-03-30T10:31:03.961Z,30.40
2019-03-30T10:33:32.711Z,30.90
2019-03-30T10:36:01.302Z,31.20
2019-03-30T10:38:29.865Z,30.90
2019-03-30T10:40:58.373Z,32.00
2019-03-30T10:43:26.864Z,31.80
2019-03-30T10:45:55.528Z,31.90
2019-03-30T10:48:24.218Z,31.60
2019-03-30T10:50:52.714Z,32.60
2019-03-30T10:53:21.242Z,32.90
2019-03-30T10:55:50.362Z,32.60
2019-03-30T10:58:19.239Z,33.10
2019-03-30T11:00:47.872Z,32.70
2019-03-30T11:03:16.433Z,32.40
2019-03-30T11:05:45.082Z,33.20
2019-03-30T11:08:13.704Z,32.40
2019-03-30T11:10:42.570Z,31.20
2019-03-30T11:13:11.271Z,30.00
2019-03-30T11:15:39.839Z,29.70
2019-03-30T11:18:08.568Z,29.70
2019-03-30T11:20:37.296Z,29.30
2019-03-30T11:23:06.044Z,28.50
2019-03-30T11:25:34.673Z,28.90
2019-03-30T11:28:03.174Z,28.60
2019-03-30T11:30:31.818Z,28.50
2019-03-30T11:33:00.389Z,29.00
2019-03-30T11:35:28.972Z,29.00
2019-03-30T11:37:57.464Z,27.80
2019-03-30T11:40:26.086Z,26.70
2019-03-30T11:42:54.727Z,25.80
2019-03-30T11:45:23.304Z,25.50
2019-03-30T11:47:51.944Z,27.20
2019-03-30T11:50:20.660Z,26.80
2019-03-30T11:52:49.235Z,26.10
2019-03-30T11:55:22.014Z,25.40
2019-03-30T11:57:48.305Z,25.70
2019-03-30T12:00:17.034Z,25.70
2019-03-30T12:02:45.517Z,26.70
2019-03-30T12:05:14.182Z,26.50
2019-03-30T12:07:42.918Z,27.00
2019-03-30T12:10:12.115Z,26.30
2019-03-30T12:13:00.095Z,25.40
2019-03-30T12:15:29.202Z,26.30
2019-03-30T12:17:57.766Z,25.00
2019-03-30T12:20:26.351Z,24.10
2019-03-30T12:22:54.908Z,25.00
2019-03-30T12:25:34.907Z,23.90
2019-03-30T12:27:53.799Z,24.90
2019-03-30T12:30:22.284Z,25.60
2019-03-30T12:32:51.044Z,25.20
2019-03-30T12:35:20.119Z,25.70
2019-03-30T12:37:48.802Z,25.70
2019-03-30T12:40:17.798Z,25.70
2019-03-30T12:42:46.358Z,24.40
2019-03-30T12:45:16.890Z,23.80
2019-03-30T12:47:47.195Z,25.10
2019-03-30T12:50:16.148Z,25.80
2019-03-30T12:52:44.842Z,24.70
2019-03-30T12:55:13.474Z,24.90
2019-03-30T12:57:42.054Z,25.90
2019-03-30T13:00:11.253Z,25.80
2019-03-30T13:02:39.943Z,24.90
2019-03-30T13:05:09.281Z,24.20
2019-03-30T13:07:37.928Z,23.70
2019-03-30T13:10:07.436Z,23.00
2019-03-30T13:12:36.191Z,22.10
2019-03-30T13:15:07.348Z,22.70
2019-03-30T13:17:36.229Z,22.60
2019-03-30T13:20:06.768Z,22.00
2019-03-30T13:22:35.375Z,22.20
2019-03-30T13:25:04.904Z,23.80
2019-03-30T13:27:35.195Z,21.70
2019-03-30T13:30:05.765Z,21.80
2019-03-30T13:32:34.423Z,22.80
2019-03-30T13:35:03.251Z,22.60
2019-03-30T13:37:32.001Z,22.60
2019-03-30T13:40:00.646Z,22.60
2019-03-30T13:42:32.463Z,22.20
2019-03-30T13:45:03.587Z,21.50
2019-03-30T13:47:31.408Z,19.70
2019-03-30T13:49:59.907Z,20.20
2019-03-30T13:52:28.404Z,19.50
2019-03-30T13:54:56.957Z,20.60
2019-03-30T13:57:25.537Z,21.30
2019-03-30T13:59:55.720Z,23.10
2019-03-30T14:02:25.091Z,23.90
2019-03-30T14:04:53.661Z,24.30
2019-03-30T14:07:22.368Z,24.60
2019-03-30T14:09:51.092Z,24.10
2019-03-30T14:12:19.648Z,23.90
2019-03-30T14:14:48.161Z,22.70
2019-03-30T14:17:19.891Z,22.10
2019-03-30T14:19:46.869Z,22.70
2019-03-30T14:22:15.520Z,23.20
2019-03-30T14:24:44.098Z,22.30
2019-03-30T14:27:12.761Z,22.20
2019-03-30T14:29:41.385Z,22.40
2019-03-30T14:32:10.074Z,22.20
2019-03-30T14:34:38.755Z,23.30
2019-03-30T14:37:07.622Z,23.10
2019-03-30T14:39:36.281Z,23.40
2019-03-30T14:42:05.120Z,21.30
2019-03-30T14:44:33.604Z,22.10
2019-03-30T14:47:02.218Z,22.90
2019-03-30T14:49:30.811Z,23.30
2019-03-30T14:51:59.466Z,23.00
2019-03-30T14:54:28.087Z,22.40
2019-03-30T14:56:56.640Z,22.90
2019-03-30T14:59:25.152Z,22.60
2019-03-30T15:01:53.727Z,22.80
2019-03-30T15:04:22.341Z,21.30
2019-03-30T15:06:51.011Z,20.90
2019-03-30T15:09:19.645Z,21.40
2019-03-30T15:11:48.284Z,21.30
2019-03-30T15:14:16.843Z,22.70
2019-03-30T15:16:45.505Z,22.50
2019-03-30T15:19:13.997Z,22.80
2019-03-30T15:21:42.743Z,21.70
2019-03-30T15:24:11.394Z,21.60
2019-03-30T15:26:40.135Z,20.80
2019-03-30T15:29:08.818Z,21.40
2019-03-30T15:31:37.385Z,22.20
2019-03-30T15:34:06.161Z,22.40
2019-03-30T15:36:34.672Z,22.80
2019-03-30T15:39:04.700Z,21.70
2019-03-30T15:41:33.282Z,20.70
2019-03-30T15:44:01.949Z,21.40
2019-03-30T15:46:30.729Z,22.00
2019-03-30T15:48:59.333Z,23.20
2019-03-30T15:51:27.901Z,23.40
2019-03-30T15:53:56.495Z,22.80
2019-03-30T15:56:25.123Z,21.80
2019-03-30T15:58:53.899Z,21.30
2019-03-30T16:01:22.761Z,21.00
2019-03-30T16:03:52.289Z,21.00
2019-03-30T16:06:20.882Z,21.40
2019-03-30T16:08:49.605Z,21.40
2019-03-30T16:11:18.241Z,21.50
2019-03-30T16:13:46.812Z,21.70
2019-03-30T16:16:15.459Z,21.00
2019-03-30T16:18:44.065Z,21.10
2019-03-30T16:21:12.787Z,21.30
2019-03-30T16:23:41.353Z,21.00
2019-03-30T16:26:09.932Z,20.50
2019-03-30T16:28:38.558Z,21.00
2019-03-30T16:31:07.130Z,21.30
2019-03-30T16:33:35.687Z,21.60
2019-03-30T16:36:04.395Z,21.30
2019-03-30T16:38:32.992Z,22.00
2019-03-30T16:41:01.706Z,22.70
2019-03-30T16:43:30.382Z,23.30
2019-03-30T16:45:59.308Z,21.90
2019-03-30T16:48:27.797Z,22.90
2019-03-30T16:50:56.464Z,22.90
2019-03-30T16:53:25.012Z,22.30
2019-03-30T16:55:53.550Z,22.40
2019-03-30T16:58:22.107Z,22.30
2019-03-30T17:00:56.790Z,22.70
2019-03-30T17:03:20.833Z,23.00
2019-03-30T17:05:49.542Z,23.20
2019-03-30T17:08:18.444Z,23.80
2019-03-30T17:10:46.995Z,24.00
2019-03-30T17:13:15.557Z,24.20
2019-03-30T17:15:44.350Z,24.60
2019-03-30T17:18:12.976Z,25.30
2019-03-30T17:20:41.515Z,25.50
2019-03-30T17:23:10.208Z,26.60
2019-03-30T17:25:38.760Z,27.20
2019-03-30T17:28:07.388Z,28.50
2019-03-30T17:30:36.095Z,29.20
2019-03-30T17:33:05.344Z,30.10
2019-03-30T17:35:33.972Z,30.00
2019-03-30T17:38:02.540Z,30.00
2019-03-30T17:40:31.262Z,31.70
2019-03-30T17:42:59.967Z,31.80
2019-03-30T17:45:28.694Z,32.20
2019-03-30T17:47:57.275Z,32.80
2019-03-30T17:50:26.025Z,32.50
2019-03-30T17:52:54.611Z,33.30
2019-03-30T17:55:33.634Z,34.00
2019-03-30T17:57:53.558Z,34.00
2019-03-30T18:00:22.551Z,34.60
2019-03-30T18:02:51.173Z,35.00
2019-03-30T18:05:19.818Z,35.70
2019-03-30T18:07:48.350Z,35.40
2019-03-30T18:10:17.484Z,35.90
2019-03-30T18:12:46.183Z,35.90
2019-03-30T18:15:15.190Z,35.70
2019-03-30T18:17:43.848Z,37.00
2019-03-30T18:20:13.941Z,36.60
2019-03-30T18:22:42.628Z,38.10
2019-03-30T18:25:11.856Z,37.00
2019-03-30T18:27:40.418Z,37.00
2019-03-30T18:30:09.627Z,38.00
2019-03-30T18:32:38.265Z,37.80
2019-03-30T18:35:07.235Z,37.80
2019-03-30T18:37:36.439Z,38.00
2019-03-30T18:40:07.625Z,38.00
2019-03-30T18:42:36.337Z,38.90
2019-03-30T18:45:07.157Z,40.60
2019-03-30T18:47:35.862Z,39.90
2019-03-30T18:50:06.942Z,40.00
2019-03-30T18:52:35.693Z,40.80
2019-03-30T18:55:05.537Z,41.50
2019-03-30T18:57:34.118Z,40.90
2019-03-30T19:00:02.713Z,42.70
2019-03-30T19:02:31.277Z,42.60
2019-03-30T19:04:59.965Z,42.20
2019-03-30T19:07:28.505Z,43.00
2019-03-30T19:09:57.180Z,43.60
2019-03-30T19:12:25.917Z,44.30
2019-03-30T19:14:54.614Z,45.10
2019-03-30T19:17:23.165Z,44.90
2019-03-30T19:19:51.812Z,45.10
2019-03-30T19:22:20.295Z,45.10
2019-03-30T19:24:48.818Z,44.50
2019-03-30T19:27:17.440Z,44.50
2019-03-30T19:29:46.012Z,44.30
2019-03-30T19:32:14.590Z,44.60
2019-03-30T19:34:43.164Z,45.80
2019-03-30T19:37:11.739Z,45.70
2019-03-30T19:39:40.306Z,45.90
2019-03-30T19:42:08.862Z,46.60
2019-03-30T19:44:37.433Z,47.70
2019-03-30T19:47:06.071Z,46.80
2019-03-30T19:49:34.658Z,47.00
2019-03-30T19:52:05.712Z,46.80
2019-03-30T19:54:33.737Z,48.20
2019-03-30T19:57:02.467Z,48.40
2019-03-30T19:59:30.959Z,48.40
2019-03-30T20:01:59.688Z,48.60
2019-03-30T20:04:28.247Z,49.30
2019-03-30T20:06:56.811Z,49.10
2019-03-30T20:09:25.411Z,48.60
2019-03-30T20:11:54.042Z,49.00
2019-03-30T20:14:22.638Z,48.50
2019-03-30T20:16:51.195Z,48.80
2019-03-30T20:19:19.835Z,48.70
2019-03-30T20:21:48.487Z,48.80
2019-03-30T20:24:16.982Z,48.60
2019-03-30T20:26:45.636Z,48.60
2019-03-30T20:29:24.638Z,49.10
2019-03-30T20:31:44.411Z,50.60
2019-03-30T20:34:13.068Z,50.00
2019-03-30T20:36:41.752Z,51.20
2019-03-30T20:39:10.477Z,50.50
2019-03-30T20:41:39.106Z,51.00
2019-03-30T20:44:07.735Z,51.90
2019-03-30T20:46:36.397Z,52.50
2019-03-30T20:49:05.091Z,52.00
2019-03-30T20:51:33.603Z,51.20
2019-03-30T20:54:02.398Z,52.30
2019-03-30T20:56:30.948Z,52.50
2019-03-30T20:58:59.609Z,52.60
2019-03-30T21:01:28.169Z,52.70
2019-03-30T21:03:56.714Z,52.20
2019-03-30T21:06:25.356Z,52.50
2019-03-30T21:08:54.008Z,52.10
2019-03-30T21:11:23.318Z,52.80
2019-03-30T21:13:51.884Z,53.50
2019-03-30T21:16:20.468Z,53.20
2019-03-30T21:18:49.042Z,53.60
2019-03-30T21:21:17.656Z,54.30
2019-03-30T21:23:46.421Z,54.30
2019-03-30T21:26:14.979Z,54.50
2019-03-30T21:28:43.486Z,54.40
2019-03-30T21:31:12.053Z,54.30
2019-03-30T21:33:40.571Z,54.90
2019-03-30T21:36:09.064Z,55.60
2019-03-30T21:38:37.645Z,56.20
2019-03-30T21:41:06.303Z,55.40
2019-03-30T21:43:34.856Z,55.70
2019-03-30T21:46:03.454Z,55.60
2019-03-30T21:48:32.012Z,56.10
2019-03-30T21:51:00.581Z,55.80
2019-03-30T21:53:29.165Z,56.00
2019-03-30T21:55:57.742Z,56.20
2019-03-30T21:58:26.350Z,56.60
2019-03-30T22:00:54.970Z,56.40
2019-03-30T22:03:23.531Z,57.10
2019-03-30T22:05:52.253Z,57.10
2019-03-30T22:08:20.950Z,57.20
2019-03-30T22:10:49.453Z,56.50
2019-03-30T22:13:21.359Z,56.50
2019-03-30T22:15:48.224Z,56.60
2019-03-30T22:18:16.723Z,57.10
2019-03-30T22:20:45.297Z,56.90
2019-03-30T22:23:13.892Z,56.90
2019-03-30T22:25:42.504Z,57.30
2019-03-30T22:28:11.075Z,57.50
2019-03-30T22:30:39.653Z,57.60
2019-03-30T22:33:08.290Z,57.30
2019-03-30T22:35:36.874Z,57.40
2019-03-30T22:38:05.503Z,57.30
2019-03-30T22:40:34.254Z,57.10
2019-03-30T22:43:02.821Z,57.50
2019-03-30T22:45:31.457Z,57.60
2019-03-30T22:48:00.049Z,57.80
2019-03-30T22:50:28.603Z,57.80
2019-03-30T22:52:57.157Z,58.50
2019-03-30T22:55:25.736Z,58.10
2019-03-30T22:57:54.432Z,57.80
2019-03-30T23:00:43.133Z,57.40
2019-03-30T23:03:12.081Z,57.80
2019-03-30T23:05:40.819Z,58.40
2019-03-30T23:08:09.493Z,58.80
2019-03-30T23:10:38.175Z,59.00
2019-03-30T23:13:06.851Z,59.10
2019-03-30T23:15:35.487Z,59.30
2019-03-30T23:18:04.337Z,59.50
2019-03-30T23:20:32.898Z,59.50
2019-03-30T23:23:01.515Z,59.70
2019-03-30T23:25:30.179Z,59.80
2019-03-30T23:27:58.748Z,59.80
2019-03-30T23:30:27.428Z,60.20
2019-03-30T23:32:55.923Z,60.60
2019-03-30T23:35:24.636Z,60.90
2019-03-30T23:37:53.296Z,60.60
2019-03-30T23:40:23.675Z,61.20
2019-03-30T23:42:52.266Z,61.40
2019-03-30T23:45:20.830Z,61.70
2019-03-30T23:47:49.647Z,61.60
2019-03-30T23:50:18.300Z,62.20
2019-03-30T23:52:46.857Z,62.00
2019-03-30T23:55:15.563Z,61.70
2019-03-30T23:57:44.214Z,61.80
